Western Neb. Rgnl/William B. Heilig Airport
KBFF : now visible

Airfield :











YOU CAN JOIN US ON...

 
LOGIN :

Register | Disclaimer

   EN    FR    IT 

 









Legend :    VFR   Marginal VFR   IFR   Intensive IFR   Very Intensive IFR
Visi :
Ceiling :
>= 8 km
>= 3000ft
5 to 8 km
1000 to 3000 ft
1500m to 5 km
500 to 1000 ft
800 to 1500m
200 to 500 ft
< 800m
< 200 ft
Symbols :   Thunderstorms  Fog  Heavy snow  Heavy precipitations  Wind > 20 kt






- Airport Elevation : 3967 ft
- IATA code : BFF


KBFF - Western Neb. Rgnl/William B. Heilig

CURRENT METAR :
  • 282153Z AUTO 13012G18KT 10SM CLR 27/06 A3015 RMK AO2 SLP180 T02720061

EXPIRED METARs :
  • 282053Z AUTO 10006KT 10SM CLR 27/06 A3017 RMK AO2 SLP184 T02670061 58017
  • 281953Z AUTO 12014G20KT 10SM CLR 26/06 A3019 RMK AO2 SLP190 T02560056
  • 281853Z AUTO 12011G19KT 10SM CLR 25/06 A3021 RMK AO2 SLP197 T02500056
  • 281753Z AUTO 15007G17KT 10SM CLR 23/05 A3022 RMK AO2 SLP205 T02330050 10239 20067 58009

TAF KBFF
Valid from the 28 at 18:00 until the 29 at 18:00 UTC


281721Z 2818/2918 12008KT P6SM SKC
FM290500 12015G25KT P6SM FEW200
KZDV FIR / North America



MET'MAP, your aeronautical weather chart ! - Copyright ORBIFLY December 2007 - Disclaimer

ORBIFLY MET'MAP TEAM :

Programming & Development : Alexandra Zaïnal
Original concept : Baudouin d'Aumeries
Technical & hardware support : Manuel Goepfert
Assistance : Marc-Olivier Méhu




SOURCES & CREDITS :

   NOAA       Earth
Advisory